LiveATC.Net - Listen to live air traffic control over the Internet!

Find LiveATC Audio Streams


Airport/ARTCC Code

Frequency Search
(e.g., 124.400, 128.75)
Site-wide search
 


Browse LiveATC Feeds
LiveATC Coverage Map
Top 50 LiveATC Feeds
Bad Weather Areas

LiveATC FAQ
Offer a LiveATC Feed
Contact LiveATC.net
Press Inquiries

LiveATC on iPhone
LiveATC on Android

Windows Phone
Windows 8/10

LiveATC Mobile
(Mobile browser)

ATC Audio Archives
Interesting Recordings

LiveATC Forums

Home Page
About LiveATC.net
Make a Donation
Terms of Use
Privacy Policy

Canadian Air Freqs

AIRMETs/SIGMETs

FAA Airport Status
Nat'l Airspace Status
Arrival Demand Charts


Server Software By:
Icecast.org
Liquidsoap


Current Potentially Bad Weather Airports
(updated every 30 minutes - sorted alphabetically by ICAO code)



This page lists LiveATC.net airport areas that may be interesting to listen to because of challenging flying (weather) conditions. Challenging weather conditions include low ceilings, limited visibility, high or gusty winds, or thunderstorms.

Updated: Wed Dec 13 13:10:01 UTC 2017
Click on airport name to go to that airport area's feeds.

CYFB CTAF/RDO Iqaluit Airport (Iqaluit, CA-NU)
WX MAP UNAVAILABLENearest METAR:
CYFB 131200Z 25012KT 15SM -SN DRSN OVC036 M12/M18 A2991 RMK SC8 SLP135
CYHU Tower #1 Saint-Hubert Airport (Montreal, CA-QC)
cyhuNearest METAR:
CYHU 131204Z AUTO 27012KT 6SM -SN FEW016 OVC022 M10/M12 A2932 RMK SLP932
CYMX Ground/Radio Montreal-Mirabel International Airport (Montreal, CA-QC)
cymxNearest METAR:
CYMX 131200Z 28007KT 240V310 6SM -SN BKN030 OVC050 M11/M14 A2933 RMK SN2SC4SC2 SLP940
CYOW Gnd/Twr/App Ottawa MacDonald Cartier International Airport (Ottawa, CA-ON)
cyowNearest METAR:
CYOW 131200Z 31015KT 2 1/2SM -SN DRSN OVC015 M14/M17 A2946 RMK SN1SC7 SLP986
CYQB Tower Quebec Jean Lesage International Airport (Quebec, CA-QC)
cyqbNearest METAR:
CYQB 131241Z 23014G19KT 1 1/2SM -SN DRSN OVC035 M08/M10 A2916 RMK NS8 SLP881
CYRQ CTAF Trois Rivieres Airport (Trois-Rivieres, CA-QC)
WX MAP UNAVAILABLENearest METAR:
CYRQ 131212Z AUTO 29004KT 250V320 6SM -SN OVC037 M10/M12 A2925 RMK SLP909
CYSC CTAF #2 Sherbrooke Airport (Sherbrooke, CA-QC)
WX MAP UNAVAILABLENearest METAR:
CYSC 131253Z AUTO 26013G19KT 6SM -SN OVC019 M10/M12 A2920 RMK SLP905
CYTS CTAF/Misc Timmins Airport (Timmins, CA-ON)
WX MAP UNAVAILABLENearest METAR:
CYTS 131200Z 35006KT 15SM -SN SCT008 OVC010 M23/M25 A2977 RMK SF3SC5 SLP118
CYUL Approach/Departure Pierre Elliott Trudeau International Airport (Montreal, CA-QC)
cyulNearest METAR:
CYUL 131200Z 27014G19KT 6SM -SN DRSN SCT014 BKN020 BKN040 M10/M13 A2934 RMK SC4SC2SC1 SLP939
CYWG Gnd/Twr/App/Dep Winnipeg James Armstrong Richardson International Airport (Winnipeg, CA-MB)
WX MAP UNAVAILABLENearest METAR:
CYWG 131216Z 35014G21KT 4SM -FZDZ -SN DRSN BR OVC006 M06/M07 A2969 RMK SC8 CIG RAG SLP072
CYYT Gnd/Twr/Gander Center St. John's International Airport (St. John's, CA-NL)
WX MAP UNAVAILABLENearest METAR:
CYYT 131230Z 12014KT 3SM BR OVC004 02/02 A2997 RMK SF8 SLP155
CYZF Ground/Tower Yellowknife Airport (Yellowknife, CA-NT)
WX MAP UNAVAILABLENearest METAR:
CYZF 131246Z 01004KT 3SM -SN BR BKN016 BKN022 M12/M14 A2999 RMK FG3SC2SC2 FROIN SLP179
EHGG Approach Groningen Airport Eelde (Groningen, Netherlands)
WX MAP UNAVAILABLENearest METAR:
EHGG 131255Z AUTO 19013KT 160V230 6000 -RA FEW004 BKN005 OVC006 03/02 Q0994 RERA REDZ TEMPO 4000 -DZ BKN004
EHGR Twr/TMA/App Gilze-Rijen Air Base (Breda, Netherlands)
WX MAP UNAVAILABLENearest METAR:
EHGR 131255Z AUTO 23009KT 200V260 9999 FEW007 BKN008 BKN010 05/04 Q0997 BLACKGRN 19015G20KT 6000 BKN006 OVC008 TEMPO 3000 -RADZ BKN004 OVC006 RMK TS INFO NOT AVBL
ENBO Approach Bodo Airport (Bodo, Norway)
WX MAP UNAVAILABLENearest METAR:
ENBO 131250Z 10011KT 9999 FEW012 SCT025 BKN040 M04/M06 Q0983 TEMPO 2000 SHSN VV008
ENEV Twr/App/ACC Harstad/Narvik Airport (Evenes, Norway)
WX MAP UNAVAILABLENearest METAR:
ENEV 131250Z 00000KT 1400 R17/P2000N SN VV010 M05/M06 Q0981 RMK WIND 1400FT 24018KT
ENGM Approach Oslo Gardermoen Airport (Oslo, Norway)
WX MAP UNAVAILABLENearest METAR:
ENGM 131250Z 03004KT 010V110 1000 R19R/1700D R01R/1600D -SN BR BKN012 M09/M10 Q0988 TEMPO 1500 -SN BR BKN008
ENTO Tower/App Sandefjord Airport - Torp (Sandefjord, Norway)
WX MAP UNAVAILABLENearest METAR:
ENTO 131250Z 36005KT 2300 -FZRASN VV004 M04/M04 Q0987 REFZRA
ESGG Gnd/Twr/Control Landvetter Airport (Gothenburg, Sweden)
WX MAP UNAVAILABLENearest METAR:
ESGG 131250Z 18014KT 2500 -SN BKN003 00/M01 Q0993 R21/29//95
FMMI Twr/App/Center Ivato International Airport (Antananarivo, Madagascar)
WX MAP UNAVAILABLENearest METAR:
FMMI 131300Z 18009KT 9999 TS SCT020CB 25/22 Q1017 TEMPO TSRA
KACK Tower Nantucket Memorial Airport (Nantucket, US-MA)
kackNearest METAR:
KACK 131256Z 27019G29KT 2 1/2SM R24/6000VP6000FT -SN OVC029 M02/M07 A2929 RMK AO2 PK WND 26027/1254 VIS 1V5 P0000 T10221067
KALB Gnd/Twr/Approach Albany International Airport (Albany, US-NY)
kalbNearest METAR:
KALB 131251Z 29012G19KT 10SM -SN SCT025 SCT085 M08/M14 A2941 RMK AO2 SNB48 SLP964 PCPN VRY LGT AND INTMT P0000 T10831139
KATW Gnd/Twr/App Outagamie County Regional Airport (Appleton, US-WI)
katwNearest METAR:
KATW 131245Z 10008KT 3SM -SN BKN013 OVC024 M08/M11 A2948
KAVP Gnd/Twr/App Wilkes-Barre/Scranton International Airport (Wilkes-Barre/Scranton, US-PA)
kavpNearest METAR:
KAVP 131254Z 25009KT 1 1/2SM -SN BR BKN035 OVC043 M09/M11 A2954 RMK AO2 SLP013 P0000 T10891111
KBJI CTAF/ZMP Bemidji Regional Airport (Bemidji, US-MN)
kbjiNearest METAR:
KBJI 131255Z AUTO 34010G16KT 5SM BR OVC004 M07/M08 A2953 RMK AO2 T10731080
KBOI Twr/App Boise Air Terminal/Gowen Field (Boise, US-ID)
kboiNearest METAR:
KBOI 131253Z 00000KT 6SM BR OVC005 M06/M07 A3046 RMK AO2 SLP346 T10561067
MA/NH/RI/CT Area CTAF Fitchburg Municipal Airport (Fitchburg, US-MA)
kconNearest METAR:
KCON 131251Z AUTO 28010KT 7SM -SN BKN025 OVC031 M06/M09 A2920 RMK AO2 SNB45 SLP894 P0000 T10611094
KBTL/KAZO Gnd/Twr/App Kalamazoo/Battle Creek International Airport (Kalamazoo, US-MI)
kazoNearest METAR:
KAZO 131253Z 17008KT 9SM -SN BKN027 OVC037 M08/M12 A2973 RMK AO2 SNB34 SLP081 P0000 T10781122
KBTR/KHZR/L38 Del/Gnd/Twr/App/CTAF Baton Rouge Metropolitan Airport - Ryan Field (Baton Rouge, US-LA)
khzrNearest METAR:
KHZR 131255Z AUTO 00000KT 1/2SM FZFG OVC001 M01/M01 A3018 RMK AO2 T10091011
KBTV Del/Gnd/Twr/App #2 Burlington International Airport (Burlington, US-VT)
kbtvNearest METAR:
KBTV 131254Z 30008KT 2 1/2SM -SN OVC025 M08/M12 A2932 RMK AO2 SNB39 SLP935 P0000 T10781122
KBUF Tower/App Buffalo Niagara International Airport (Buffalo, US-NY)
kbufNearest METAR:
KBUF 131254Z 26010KT 9SM -SN BKN026 M12/M16 A2969 RMK AO2 SLP069 PCPN VRY LGT P0000 T11221161
KDLH Gnd/Twr/App Duluth International Airport (Duluth, US-MN)
kdlhNearest METAR:
KDLH 131255Z 09008KT 3SM -SN BR BKN008 OVC024 M07/M08 A2943 RMK AO2 SFC VIS 5 CIG 007V012 SLP994 P0002 T10721083
KEAR AWOS Kearney Regional Airport (Kearney, US-NE)
kearNearest METAR:
KEAR 131256Z AUTO 32021G32KT 10SM CLR 11/M07 A2985 RMK AO2 PK WND 32032/1249 SLP111 T01061072
KEVV Twr/ZID Evansville Regional Airport (Evansville, US-IN)
kevvNearest METAR:
KEVV 131254Z 21010KT 9SM -SN FEW070 M03/M10 A2992 RMK AO2 SLP135 P0000 T10281100
KFAR Approach/Departure Hector International Airport (Fargo, US-ND)
kfarNearest METAR:
KFAR 131253Z AUTO 35030G39KT 10SM OVC014 M01/M03 A2966 RMK AO2 PK WND 34040/1243 UPB1159E11 SLP053 P0000 T10061033
KFSD Twr/App/Dep/ZMP Joe Foss Field Airport (Sioux Falls, US-SD)
kfsdNearest METAR:
KFSD 131256Z 32024G37KT 10SM -RA OVC020 04/02 A2961 RMK AO2 PK WND 31044/1204 SLP037 P0000 T00440022
KGEG Del/Gnd/Twr/App Spokane International Airport (Spokane, US-WA)
kgegNearest METAR:
KGEG 131253Z 10004KT 7SM -SN OVC009 M04/M05 A3042 RMK AO2 SNB52 PRESFR SLP332 P0000 T10391050
KGFK Approach Grand Forks International Airport (Grand Forks, US-ND)
kgfkNearest METAR:
KGFK 131253Z 34025G34KT 10SM OVC013 M02/M04 A2967 RMK AO2 PK WND 35037/1233 UPB1155E1157SNE1155B1157E04 SLP061 P0000 T10221039
KGRB Del/Gnd/Twr/App Austin Straubel International Airport (Green Bay, US-WI)
kgrbNearest METAR:
KGRB 131253Z 08007KT 1/2SM SN VV011 M07/M10 A2955 RMK AO2 SNB05 SLP020 P0002 T10721100 RVRNO
KGRR Del/Gnd/Twr/App Gerald R. Ford International Airport (Grand Rapids, US-MI)
kgrrNearest METAR:
KGRR 131253Z 14009KT 4SM -SN BR OVC038 M07/M09 A2970 RMK AO2 PRESFR SLP069 P0001 T10721089
KHUL/KPQI/ZBW01/15 Houlton International Airport (Houlton, US-ME)
khulNearest METAR:
KHUL 131253Z AUTO 25011KT 4SM -RA BR OVC004 02/02 A2893 RMK AO2 RAB11 SLP802 P0000 T00170017
KJFK Ground #2 John F Kennedy International Airport (New York, US-NY)
kjfkNearest METAR:
KJFK 131251Z 28022G31KT 10SM SCT046 M06/M15 A2956 RMK AO2 PK WND 29031/1248 SLP008 T10611150
KLAN Del/Gnd/Twr/App Capital Region International Airport (Lansing, US-MI)
klanNearest METAR:
KLAN 131253Z AUTO 17009KT 5SM -SN BR OVC050 M08/M11 A2976 RMK AO2 SNE01B30 SLP092 P0000 T10831106
KMAN/KEUL CTAF Nampa Municipal Airport (Nampa, US-ID)
kmanNearest METAR:
KMAN 131255Z AUTO 00000KT 5SM BR OVC005 M05/M05 A3048 RMK A01
KMTW CTAF Manitowoc County Airport (Manitowoc, US-WI)
kmtwNearest METAR:
KMTW 131256Z AUTO 15011KT 1 1/2SM -SN BR BKN013 BKN021 OVC032 M04/M05 A2956 RMK AO2 SNB10 SLP034 P0000 T10391050 FZRANO
KMWH ATIS Grant County International Airport (Moses Lake, US-WA)
kmwhNearest METAR:
KMWH 131252Z AUTO 00000KT 10SM OVC009 M02/M04 A3052 RMK AO2 SLP352 T10171039
KOGD Ogden Ground/Tower Ogden-Hinckley Airport (Ogden, US-UT)
kogdNearest METAR:
KOGD 131253Z AUTO 00000KT 4SM BR OVC003 M05/M06 A3036 RMK AO2 SLP307 T10501061
KPVU Tower Provo Municipal Airport (Provo, US-UT)
kpvuNearest METAR:
KPVU 131256Z AUTO 14007KT 1/4SM HZ OVC001 M07/M07 A3037 RMK AO2 SLP323 T10671072
KROC Tower/Approach Greater Rochester International Airport (Rochester, US-NY)
krocNearest METAR:
KROC 131254Z 30014G22KT 1SM R04/5500VP6000FT -SN BLSN BKN017 OVC028 M09/M12 A2962 RMK AO2 PK WND 30026/1226 SLP043 P0000 T10941117
KSFF Ground/Tower Felts Field Airport (Spokane, US-WA)
ksffNearest METAR:
KSFF 131253Z AUTO 12004KT 10SM -SN OVC012 M02/M06 A3046 RMK AO2 SNB53 SLP338 P0000 T10221056
KSLC Tower Salt Lake City International Airport (Salt Lake City, US-UT)
kslcNearest METAR:
KSLC 131254Z 00000KT 2SM -SN BR OVC005 M05/M06 A3037 RMK AO2 SNE05B46 SLP311 P0000 T10501056 VISNO NW RNWY $
KSYR Tower/Approach Syracuse Hancock International Airport (Syracuse, US-NY)
ksyrNearest METAR:
KSYR 131254Z 29008KT 1/2SM R28/2800V4000FT SN BLSN VV008 M11/M11 A2952 RMK AO2 SLP002 SNINCR 1/9 P0002 T11061111 $
KTRK CTAF/Unicom Truckee-Tahoe Airport (Truckee, US-CA)
ktrkNearest METAR:
KTRK 131255Z AUTO 00000KT 1/2SM FZFG OVC002 M12/M14 A3037 RMK AO2
KTVC Gnd/Twr/ZMP Cherry Capital Airport (Traverse City, US-MI)
ktvcNearest METAR:
KTVC 131253Z 14004KT 3SM -SN OVC044 M09/M12 A2968 RMK AO2 SNB00 SLP062 P0000 T10891117 $
KTVL CTAF/Unicom Lake Tahoe Airport (South Lake Tahoe, US-CA)
ktvlNearest METAR:
KTVL 131253Z AUTO 19006KT 10SM OVC004 M08/M10 A3037 RMK AO2 SLP307 T10781100
KUNV Gnd/Twr/ZNY University Park Airport (State College, US-PA)
kunvNearest METAR:
KUNV 131253Z 28015G25KT 10SM -SN SCT019 BKN030 BKN037 M09/M14 A2968
Bordeaux Control Angouleme Airport (Angouleme, France)
WX MAP UNAVAILABLENearest METAR:
LFBU 131230Z AUTO 19008KT 160V220 9999 OVC004 08/08 Q1013 TEMPO 3500 RA BKN005 BECMG 20015G25KT
PADQ Gnd/Twr/ZAN Kodiak Airport (Kodiak, US-AK)
padqNearest METAR:
PADQ 131253Z AUTO 10012KT OVC005 07/06 A2928 RMK AO2 RAE52 SLP915 P0004 T00670061 TSNO $
PASC CTAF/Unicom/AFIS/App Deadhorse Airport (Deadhorse, US-AK)
WX MAP UNAVAILABLENearest METAR:
PASC 131253Z 07027KT 1/2SM R06/2800V4000FT -SN BLSN FZFG OVC004 M11/M12 A3006 RMK AO2 PK WND 06032/1232 SNB10 SLP179 P0000 T11111122
SPJC Approach Jorge Chavez International Airport (Lima, Peru)
WX MAP UNAVAILABLENearest METAR:
SPJC 131300Z 17007KT 9000 OVC009 19/17 Q1015 NOSIG RMK PP000
UAAA Tower/Approach Almaty International Airport (Almaty, Kazakhstan)
WX MAP UNAVAILABLENearest METAR:
UAAA 131230Z 35002MPS 5000 BR OVC009 M05/M06 Q1029 R05L/3///50 R05R/3///40 NOSIG